createdAt,value
2017-08-30T00:00:12.381Z,22.50
2017-08-30T00:02:39.947Z,22.50
2017-08-30T00:05:07.558Z,22.50
2017-08-30T00:07:35.150Z,22.50
2017-08-30T00:10:02.741Z,22.40
2017-08-30T00:12:30.324Z,22.40
2017-08-30T00:14:57.905Z,22.30
2017-08-30T00:17:25.536Z,22.30
2017-08-30T00:19:53.111Z,22.20
2017-08-30T00:22:20.790Z,22.20
2017-08-30T00:25:01.104Z,22.10
2017-08-30T00:27:28.685Z,22.10
2017-08-30T00:29:56.268Z,22.10
2017-08-30T00:32:23.847Z,22.10
2017-08-30T00:34:51.429Z,22.00
2017-08-30T00:37:19.008Z,21.90
2017-08-30T00:39:46.588Z,21.80
2017-08-30T00:42:14.199Z,21.80
2017-08-30T00:44:41.789Z,21.70
2017-08-30T00:47:09.390Z,21.60
2017-08-30T00:49:36.974Z,21.50
2017-08-30T00:52:04.576Z,21.50
2017-08-30T00:54:32.171Z,21.40
2017-08-30T00:56:59.760Z,21.40
2017-08-30T00:59:27.379Z,21.30
2017-08-30T01:01:54.952Z,21.20
2017-08-30T01:04:22.538Z,21.20
2017-08-30T01:06:50.142Z,21.10
2017-08-30T01:09:17.723Z,21.00
2017-08-30T01:11:45.322Z,21.00
2017-08-30T01:14:12.892Z,21.00
2017-08-30T01:16:40.470Z,20.90
2017-08-30T01:19:08.052Z,20.90
2017-08-30T01:21:35.634Z,20.90
2017-08-30T01:24:03.257Z,20.90
2017-08-30T01:26:30.821Z,20.90
2017-08-30T01:28:58.395Z,21.00
2017-08-30T01:31:26.028Z,21.00
2017-08-30T01:33:53.615Z,21.00
2017-08-30T01:36:21.247Z,21.00
2017-08-30T01:38:48.841Z,21.00
2017-08-30T01:41:16.424Z,20.90
2017-08-30T01:43:44.027Z,20.90
2017-08-30T01:46:11.603Z,20.90
2017-08-30T01:48:39.235Z,20.90
2017-08-30T01:51:06.826Z,20.90
2017-08-30T01:53:34.415Z,21.00
2017-08-30T01:56:02.011Z,21.00
2017-08-30T01:58:29.607Z,21.00
2017-08-30T02:00:57.220Z,21.10
2017-08-30T02:03:24.815Z,21.00
2017-08-30T02:05:52.391Z,21.10
2017-08-30T02:08:19.991Z,21.00
2017-08-30T02:10:47.569Z,21.10
2017-08-30T02:13:15.176Z,21.10
2017-08-30T02:15:42.785Z,21.00
2017-08-30T02:18:10.367Z,21.00
2017-08-30T02:20:37.970Z,21.00
2017-08-30T02:23:05.564Z,21.00
2017-08-30T02:25:33.157Z,20.90
2017-08-30T02:28:00.726Z,21.00
2017-08-30T02:30:28.310Z,21.00
2017-08-30T02:32:55.926Z,20.90
2017-08-30T02:35:23.485Z,20.90
2017-08-30T02:37:51.104Z,20.80
2017-08-30T02:40:18.666Z,20.80
2017-08-30T02:42:46.259Z,20.80
2017-08-30T02:45:13.852Z,20.80
2017-08-30T02:47:41.417Z,20.70
2017-08-30T02:50:09.037Z,20.70
2017-08-30T02:52:36.617Z,20.70
2017-08-30T02:55:04.196Z,20.70
2017-08-30T02:57:31.807Z,20.60
2017-08-30T02:59:59.398Z,20.60
2017-08-30T03:02:26.994Z,20.60
2017-08-30T03:04:54.598Z,20.50
2017-08-30T03:07:22.175Z,20.50
2017-08-30T03:09:50.535Z,20.40
2017-08-30T03:12:18.168Z,20.40
2017-08-30T03:14:45.756Z,20.30
2017-08-30T03:17:13.323Z,20.20
2017-08-30T03:19:40.957Z,20.10
2017-08-30T03:22:08.545Z,20.00
2017-08-30T03:24:36.128Z,19.90
2017-08-30T03:27:03.751Z,19.80
2017-08-30T03:29:31.352Z,19.70
2017-08-30T03:31:59.691Z,19.50
2017-08-30T03:34:27.277Z,19.50
2017-08-30T03:36:54.869Z,19.40
2017-08-30T03:39:22.449Z,19.40
2017-08-30T03:41:50.082Z,19.30
2017-08-30T03:44:18.444Z,19.30
2017-08-30T03:46:46.026Z,19.30
2017-08-30T03:49:13.634Z,19.30
2017-08-30T03:51:41.206Z,19.30
2017-08-30T03:54:08.819Z,19.20
2017-08-30T03:56:36.478Z,19.10
2017-08-30T03:59:04.076Z,19.10
2017-08-30T04:01:31.655Z,19.10
2017-08-30T04:03:59.270Z,19.10
2017-08-30T04:06:26.848Z,19.00
2017-08-30T04:08:54.424Z,19.00
2017-08-30T04:11:22.039Z,19.00
2017-08-30T04:13:49.619Z,18.90
2017-08-30T04:16:17.977Z,18.80
2017-08-30T04:18:45.631Z,18.80
2017-08-30T04:21:13.214Z,18.90
2017-08-30T04:23:40.803Z,18.80
2017-08-30T04:26:08.425Z,18.80
2017-08-30T04:28:36.017Z,18.80
2017-08-30T04:31:03.596Z,18.80
2017-08-30T04:33:31.230Z,18.80
2017-08-30T04:35:58.823Z,18.70
2017-08-30T04:38:26.398Z,18.60
2017-08-30T04:40:54.019Z,18.40
2017-08-30T04:43:21.580Z,18.30
2017-08-30T04:45:49.190Z,18.20
2017-08-30T04:48:16.798Z,18.20
2017-08-30T04:50:44.396Z,18.40
2017-08-30T04:53:12.005Z,18.40
2017-08-30T04:55:39.630Z,18.60
2017-08-30T04:58:07.260Z,18.60
2017-08-30T05:00:34.927Z,18.70
2017-08-30T05:03:02.560Z,18.80
2017-08-30T05:05:30.196Z,18.80
2017-08-30T05:07:57.821Z,18.90
2017-08-30T05:10:25.416Z,18.90
2017-08-30T05:12:52.973Z,19.10
2017-08-30T05:15:20.550Z,19.10
2017-08-30T05:17:48.178Z,19.10
2017-08-30T05:20:15.772Z,19.10
2017-08-30T05:22:43.347Z,19.10
2017-08-30T05:25:11.287Z,19.10
2017-08-30T05:27:38.876Z,19.10
2017-08-30T05:30:06.456Z,19.20
2017-08-30T05:32:34.099Z,19.30
2017-08-30T05:35:01.714Z,19.30
2017-08-30T05:37:30.107Z,19.40
2017-08-30T05:39:57.716Z,19.40
2017-08-30T05:42:25.308Z,19.50
2017-08-30T05:44:52.888Z,19.70
2017-08-30T05:47:20.487Z,19.80
2017-08-30T05:49:48.078Z,19.90
2017-08-30T05:52:15.636Z,19.90
2017-08-30T05:54:43.220Z,19.90
2017-08-30T05:57:10.784Z,20.00
2017-08-30T05:59:38.384Z,20.10
2017-08-30T06:02:05.986Z,20.10
2017-08-30T06:04:33.587Z,20.10
2017-08-30T06:07:01.167Z,20.10
2017-08-30T06:09:28.796Z,20.00
2017-08-30T06:11:57.198Z,20.00
2017-08-30T06:14:24.797Z,20.00
2017-08-30T06:16:52.514Z,20.10
2017-08-30T06:19:20.083Z,20.20
2017-08-30T06:21:47.683Z,20.30
2017-08-30T06:24:15.290Z,20.40
2017-08-30T06:26:42.860Z,20.50
2017-08-30T06:29:10.463Z,20.60
2017-08-30T06:31:38.147Z,20.60
2017-08-30T06:34:05.740Z,20.60
2017-08-30T06:36:33.334Z,20.60
2017-08-30T06:39:00.949Z,20.50
2017-08-30T06:41:28.527Z,20.50
2017-08-30T06:43:56.167Z,20.70
2017-08-30T06:46:23.777Z,21.10
2017-08-30T06:48:51.359Z,21.50
2017-08-30T06:51:18.940Z,21.90
2017-08-30T06:53:46.577Z,22.00
2017-08-30T06:56:14.179Z,22.00
2017-08-30T06:58:41.780Z,22.00
2017-08-30T07:01:09.395Z,22.10
2017-08-30T07:03:37.003Z,22.00
2017-08-30T07:06:05.352Z,21.90
2017-08-30T07:08:32.951Z,21.90
2017-08-30T07:11:00.539Z,21.90
2017-08-30T07:13:28.112Z,22.00
2017-08-30T07:15:55.721Z,22.20
2017-08-30T07:18:24.073Z,22.30
2017-08-30T07:20:51.664Z,22.30
2017-08-30T07:23:19.284Z,22.30
2017-08-30T07:25:46.869Z,22.30
2017-08-30T07:28:14.469Z,22.10
2017-08-30T07:30:42.093Z,22.00
2017-08-30T07:33:09.658Z,21.90
2017-08-30T07:35:37.261Z,21.80
2017-08-30T07:38:05.628Z,21.60
2017-08-30T07:40:33.239Z,21.60
2017-08-30T07:43:00.826Z,21.60
2017-08-30T07:45:28.432Z,21.50
2017-08-30T07:47:56.037Z,21.50
2017-08-30T07:50:23.592Z,21.50
2017-08-30T07:52:51.196Z,21.40
2017-08-30T07:55:18.772Z,21.50
2017-08-30T07:57:46.378Z,21.70
2017-08-30T08:00:14.013Z,21.90
2017-08-30T08:02:41.616Z,22.10
2017-08-30T08:05:09.200Z,22.30
2017-08-30T08:07:36.808Z,22.50
2017-08-30T08:10:04.421Z,22.70
2017-08-30T08:12:32.061Z,22.90
2017-08-30T08:14:59.656Z,23.20
2017-08-30T08:17:27.247Z,23.50
2017-08-30T08:19:54.837Z,23.80
2017-08-30T08:22:23.416Z,24.00
2017-08-30T08:24:51.009Z,24.30
2017-08-30T08:27:19.754Z,24.50
2017-08-30T08:29:47.395Z,24.60
2017-08-30T08:32:14.972Z,24.70
2017-08-30T08:34:42.562Z,24.60
2017-08-30T08:37:10.175Z,24.60
2017-08-30T08:39:37.791Z,24.50
2017-08-30T08:42:05.413Z,24.40
2017-08-30T08:44:33.039Z,24.10
2017-08-30T08:47:00.627Z,23.90
2017-08-30T08:49:28.203Z,23.70
2017-08-30T08:51:55.824Z,23.50
2017-08-30T08:54:23.402Z,23.30
2017-08-30T08:56:51.947Z,23.20
2017-08-30T08:59:20.341Z,23.10
2017-08-30T09:01:47.914Z,23.10
2017-08-30T09:04:15.477Z,22.90
2017-08-30T09:06:43.075Z,22.70
2017-08-30T09:09:10.667Z,22.60
2017-08-30T09:11:38.251Z,22.60
2017-08-30T09:14:06.417Z,22.40
2017-08-30T09:16:34.001Z,22.20
2017-08-30T09:19:01.616Z,22.20
2017-08-30T09:21:29.247Z,22.20
2017-08-30T09:23:56.827Z,22.30
2017-08-30T09:26:24.399Z,22.30
2017-08-30T09:28:52.829Z,22.20
2017-08-30T09:31:20.431Z,22.20
2017-08-30T09:33:48.035Z,22.00
2017-08-30T09:36:15.696Z,22.00
2017-08-30T09:38:43.299Z,21.90
2017-08-30T09:41:10.885Z,21.90
2017-08-30T09:43:38.485Z,21.80
2017-08-30T09:46:06.561Z,21.80
2017-08-30T09:48:34.902Z,21.80
2017-08-30T09:51:02.499Z,21.80
2017-08-30T09:53:30.093Z,22.00
2017-08-30T09:55:57.671Z,22.20
2017-08-30T09:58:25.296Z,22.40
2017-08-30T10:00:52.878Z,22.50
2017-08-30T10:03:20.449Z,22.60
2017-08-30T10:05:48.057Z,22.60
2017-08-30T10:08:15.641Z,22.50
2017-08-30T10:10:43.205Z,22.50
2017-08-30T10:13:10.825Z,22.40
2017-08-30T10:15:38.402Z,22.20
2017-08-30T10:18:05.982Z,22.10
2017-08-30T10:20:33.691Z,22.00
2017-08-30T10:23:01.263Z,22.10
2017-08-30T10:25:28.828Z,22.00
2017-08-30T10:27:56.458Z,22.10
2017-08-30T10:30:24.067Z,22.10
2017-08-30T10:32:51.651Z,22.20
2017-08-30T10:35:19.272Z,22.30
2017-08-30T10:37:46.913Z,22.70
2017-08-30T10:40:14.519Z,23.00
2017-08-30T10:42:42.113Z,23.20
2017-08-30T10:45:09.701Z,23.40
2017-08-30T10:47:37.286Z,23.40
2017-08-30T10:50:04.915Z,23.50
2017-08-30T10:52:32.517Z,23.70
2017-08-30T10:55:00.122Z,23.70
2017-08-30T10:57:27.728Z,23.80
2017-08-30T10:59:55.306Z,23.80
2017-08-30T11:02:22.898Z,23.90
2017-08-30T11:04:50.488Z,23.90
2017-08-30T11:07:18.067Z,24.10
2017-08-30T11:09:45.653Z,24.40
2017-08-30T11:12:13.257Z,24.60
2017-08-30T11:14:40.844Z,24.80
2017-08-30T11:17:08.415Z,25.10
2017-08-30T11:19:36.082Z,25.20
2017-08-30T11:22:03.681Z,25.30
2017-08-30T11:24:31.275Z,25.50
2017-08-30T11:26:58.889Z,25.50
2017-08-30T11:29:26.518Z,25.60
2017-08-30T11:31:54.214Z,25.90
2017-08-30T11:34:21.800Z,25.90
2017-08-30T11:36:49.390Z,25.90
2017-08-30T11:39:16.975Z,26.10
2017-08-30T11:41:44.603Z,26.10
2017-08-30T11:44:12.181Z,26.10
2017-08-30T11:46:39.764Z,26.30
2017-08-30T11:49:07.395Z,26.30
2017-08-30T11:51:34.973Z,26.40
2017-08-30T11:54:02.555Z,26.50
2017-08-30T11:56:30.179Z,26.40
2017-08-30T11:58:57.748Z,26.20
2017-08-30T12:01:25.341Z,26.30
2017-08-30T12:03:52.958Z,26.40
2017-08-30T12:06:20.535Z,26.50
2017-08-30T12:08:48.108Z,26.50
2017-08-30T12:11:15.734Z,26.50
2017-08-30T12:13:43.333Z,26.40
2017-08-30T12:16:10.928Z,26.10
2017-08-30T12:18:38.549Z,25.90
2017-08-30T12:21:06.139Z,25.80
2017-08-30T12:23:33.793Z,25.70
2017-08-30T12:26:01.485Z,25.60
2017-08-30T12:28:29.108Z,25.50
2017-08-30T12:30:56.704Z,25.50
2017-08-30T12:33:24.357Z,25.40
2017-08-30T12:35:51.920Z,25.30
2017-08-30T12:38:25.248Z,25.20
2017-08-30T12:40:52.857Z,25.00
2017-08-30T12:43:20.453Z,24.70
2017-08-30T12:45:48.065Z,24.40
2017-08-30T12:48:15.629Z,24.40
2017-08-30T12:50:43.210Z,24.40
2017-08-30T12:53:10.824Z,24.70
2017-08-30T12:55:38.415Z,24.80
2017-08-30T12:58:05.977Z,25.00
2017-08-30T13:00:33.582Z,25.20
2017-08-30T13:03:01.165Z,25.30
2017-08-30T13:05:28.743Z,25.30
2017-08-30T13:07:56.352Z,25.20
2017-08-30T13:10:23.900Z,25.20
2017-08-30T13:12:51.472Z,25.00
2017-08-30T13:15:19.064Z,25.00
2017-08-30T13:17:46.655Z,24.80
2017-08-30T13:20:14.257Z,24.70
2017-08-30T13:22:41.874Z,24.70
2017-08-30T13:25:09.434Z,24.80
2017-08-30T13:27:36.992Z,24.80
2017-08-30T13:30:04.612Z,24.80
2017-08-30T13:32:32.959Z,24.90
2017-08-30T13:35:00.546Z,24.90
2017-08-30T13:37:28.141Z,24.90
2017-08-30T13:39:55.716Z,25.00
2017-08-30T13:42:23.282Z,25.00
2017-08-30T13:44:50.901Z,25.10
2017-08-30T13:47:18.477Z,25.10
2017-08-30T13:49:46.068Z,24.90
2017-08-30T13:52:13.691Z,24.90
2017-08-30T13:54:41.285Z,24.90
2017-08-30T13:57:08.882Z,24.70
2017-08-30T13:59:36.486Z,24.70
2017-08-30T14:02:04.832Z,24.80
2017-08-30T14:04:32.414Z,24.70
2017-08-30T14:07:00.018Z,24.90
2017-08-30T14:09:27.590Z,25.00
2017-08-30T14:11:55.155Z,25.00
2017-08-30T14:14:22.777Z,25.10
2017-08-30T14:16:50.349Z,25.10
2017-08-30T14:19:17.930Z,25.20
2017-08-30T14:21:45.539Z,25.10
2017-08-30T14:24:13.112Z,25.20
2017-08-30T14:26:41.444Z,25.20
2017-08-30T14:29:09.040Z,25.20
2017-08-30T14:31:36.623Z,25.20
2017-08-30T14:34:04.976Z,25.30
2017-08-30T14:36:32.587Z,25.30
2017-08-30T14:39:00.149Z,25.30
2017-08-30T14:41:28.508Z,25.40
2017-08-30T14:43:56.224Z,25.40
2017-08-30T14:46:23.798Z,25.40
2017-08-30T14:48:51.377Z,25.50
2017-08-30T14:51:18.999Z,25.50
2017-08-30T14:53:46.579Z,25.50
2017-08-30T14:56:14.169Z,25.60
2017-08-30T14:58:41.779Z,25.60
2017-08-30T15:01:09.355Z,25.60
2017-08-30T15:03:36.952Z,25.60
2017-08-30T15:06:04.573Z,25.70
2017-08-30T15:08:32.165Z,25.60
2017-08-30T15:10:59.728Z,25.70
2017-08-30T15:13:27.451Z,25.70
2017-08-30T15:15:55.044Z,25.60
2017-08-30T15:18:22.615Z,25.60
2017-08-30T15:20:50.241Z,25.50
2017-08-30T15:23:17.812Z,25.40
2017-08-30T15:25:45.388Z,25.40
2017-08-30T15:28:13.024Z,25.30
2017-08-30T15:30:40.594Z,25.30
2017-08-30T15:33:08.168Z,25.30
2017-08-30T15:35:35.781Z,25.20
2017-08-30T15:38:03.374Z,25.20
2017-08-30T15:40:30.961Z,25.20
2017-08-30T15:42:58.582Z,25.10
2017-08-30T15:45:26.178Z,25.10
2017-08-30T15:47:53.758Z,25.00
2017-08-30T15:50:21.368Z,24.90
2017-08-30T15:52:48.980Z,24.90
2017-08-30T15:55:16.575Z,24.80
2017-08-30T15:57:44.177Z,24.80
2017-08-30T16:00:11.766Z,24.80
2017-08-30T16:02:39.325Z,24.70
2017-08-30T16:05:06.924Z,24.70
2017-08-30T16:07:34.496Z,24.70
2017-08-30T16:10:02.074Z,24.70
2017-08-30T16:12:29.676Z,24.70
2017-08-30T16:14:57.232Z,24.70
2017-08-30T16:17:24.806Z,24.80
2017-08-30T16:19:52.393Z,24.80
2017-08-30T16:22:19.974Z,25.00
2017-08-30T16:24:47.573Z,25.00
2017-08-30T16:27:15.974Z,25.00
2017-08-30T16:29:43.541Z,24.90
2017-08-30T16:32:11.101Z,24.80
2017-08-30T16:34:38.734Z,24.70
2017-08-30T16:37:06.308Z,24.70
2017-08-30T16:39:33.879Z,24.70
2017-08-30T16:42:01.479Z,24.80
2017-08-30T16:44:29.036Z,24.70
2017-08-30T16:46:56.621Z,24.70
2017-08-30T16:49:24.231Z,24.60
2017-08-30T16:51:51.815Z,24.60
2017-08-30T16:54:19.421Z,24.60
2017-08-30T16:56:47.044Z,24.60
2017-08-30T16:59:14.620Z,24.50
2017-08-30T17:01:42.199Z,24.50
2017-08-30T17:04:09.806Z,24.40
2017-08-30T17:06:37.386Z,24.30
2017-08-30T17:09:04.971Z,24.40
2017-08-30T17:11:32.616Z,24.30
2017-08-30T17:14:00.192Z,24.20
2017-08-30T17:16:27.771Z,24.20
2017-08-30T17:18:55.370Z,24.10
2017-08-30T17:21:22.952Z,24.10
2017-08-30T17:23:50.523Z,24.10
2017-08-30T17:26:18.121Z,23.90
2017-08-30T17:28:45.710Z,23.90
2017-08-30T17:31:13.283Z,23.80
2017-08-30T17:33:40.887Z,23.80
2017-08-30T17:36:08.453Z,23.80
2017-08-30T17:38:36.026Z,23.70
2017-08-30T17:41:03.637Z,23.60
2017-08-30T17:43:31.231Z,23.60
2017-08-30T17:45:58.818Z,23.50
2017-08-30T17:48:26.433Z,23.50
2017-08-30T17:50:54.006Z,23.50
2017-08-30T17:53:21.594Z,23.50
2017-08-30T17:55:49.199Z,23.50
2017-08-30T17:58:16.787Z,23.40
2017-08-30T18:00:44.363Z,23.40
2017-08-30T18:03:11.975Z,23.30
2017-08-30T18:05:39.565Z,23.30
2017-08-30T18:08:07.151Z,23.30
2017-08-30T18:10:34.742Z,23.20
2017-08-30T18:13:02.331Z,23.20
2017-08-30T18:15:29.933Z,23.10
2017-08-30T18:17:57.546Z,23.10
2017-08-30T18:20:25.123Z,23.00
2017-08-30T18:22:52.722Z,22.90
2017-08-30T18:25:20.316Z,22.80
2017-08-30T18:27:47.883Z,22.70
2017-08-30T18:30:15.453Z,22.60
2017-08-30T18:32:43.060Z,22.50
2017-08-30T18:35:10.624Z,22.40
2017-08-30T18:37:38.184Z,22.30
2017-08-30T18:40:05.786Z,22.30
2017-08-30T18:42:33.348Z,22.20
2017-08-30T18:45:00.908Z,22.20
2017-08-30T18:47:28.514Z,22.10
2017-08-30T18:49:56.095Z,22.10
2017-08-30T18:52:23.667Z,22.10
2017-08-30T18:54:51.299Z,22.10
2017-08-30T18:57:18.861Z,22.10
2017-08-30T18:59:46.423Z,22.10
2017-08-30T19:02:14.010Z,22.10
2017-08-30T19:04:41.597Z,22.00
2017-08-30T19:07:09.194Z,22.00
2017-08-30T19:09:36.823Z,22.10
2017-08-30T19:12:04.384Z,21.90
2017-08-30T19:14:31.977Z,21.50
2017-08-30T19:16:59.566Z,21.20
2017-08-30T19:19:27.166Z,20.80
2017-08-30T19:21:54.745Z,20.60
2017-08-30T19:24:22.341Z,20.30
2017-08-30T19:26:49.939Z,20.00
2017-08-30T19:29:17.540Z,19.90
2017-08-30T19:31:45.161Z,19.70
2017-08-30T19:34:12.750Z,19.70
2017-08-30T19:36:40.328Z,19.70
2017-08-30T19:39:07.940Z,19.60
2017-08-30T19:41:35.494Z,19.60
2017-08-30T19:44:03.054Z,19.60
2017-08-30T19:46:30.632Z,19.50
2017-08-30T19:48:58.218Z,19.50
2017-08-30T19:51:25.856Z,19.40
2017-08-30T19:53:53.478Z,19.40
2017-08-30T19:56:21.063Z,19.40
2017-08-30T19:58:48.637Z,19.50
2017-08-30T20:01:16.228Z,19.50
2017-08-30T20:03:43.784Z,19.60
2017-08-30T20:06:11.375Z,19.60
2017-08-30T20:08:39.105Z,19.60
2017-08-30T20:11:06.683Z,19.60
2017-08-30T20:13:34.251Z,19.50
2017-08-30T20:16:01.856Z,19.60
2017-08-30T20:18:29.480Z,19.60
2017-08-30T20:20:57.034Z,19.60
2017-08-30T20:23:24.627Z,19.60
2017-08-30T20:25:52.188Z,19.70
2017-08-30T20:28:19.762Z,19.70
2017-08-30T20:30:47.422Z,19.60
2017-08-30T20:33:15.023Z,19.50
2017-08-30T20:35:42.596Z,19.40
2017-08-30T20:38:10.220Z,19.30
2017-08-30T20:40:37.810Z,19.20
2017-08-30T20:43:05.371Z,19.20
2017-08-30T20:45:32.967Z,19.20
2017-08-30T20:48:00.570Z,19.20
2017-08-30T20:50:28.144Z,19.20
2017-08-30T20:52:55.754Z,19.20
2017-08-30T20:55:23.336Z,19.20
2017-08-30T20:57:50.937Z,19.20
2017-08-30T21:00:18.517Z,19.20
2017-08-30T21:02:46.109Z,19.10
2017-08-30T21:05:13.697Z,19.10
2017-08-30T21:07:41.284Z,19.10
2017-08-30T21:10:08.856Z,19.10
2017-08-30T21:12:36.435Z,19.10
2017-08-30T21:15:04.058Z,19.00
2017-08-30T21:17:31.647Z,19.00
2017-08-30T21:19:59.201Z,18.90
2017-08-30T21:22:26.821Z,18.90
2017-08-30T21:24:54.421Z,18.90
2017-08-30T21:27:21.995Z,18.90
2017-08-30T21:29:49.621Z,18.80
2017-08-30T21:32:17.204Z,18.80
2017-08-30T21:34:44.770Z,18.80
2017-08-30T21:37:12.373Z,18.70
2017-08-30T21:39:39.957Z,18.70
2017-08-30T21:42:07.539Z,18.70
2017-08-30T21:44:35.224Z,18.70
2017-08-30T21:47:02.801Z,18.70
2017-08-30T21:49:30.389Z,18.70
2017-08-30T21:51:58.012Z,18.70
2017-08-30T21:54:25.602Z,18.60
2017-08-30T21:56:53.169Z,18.60
2017-08-30T21:59:20.770Z,18.60
2017-08-30T22:01:48.352Z,18.60
2017-08-30T22:04:15.918Z,18.60
2017-08-30T22:06:43.507Z,18.60
2017-08-30T22:09:11.065Z,18.60
2017-08-30T22:11:38.653Z,18.60
2017-08-30T22:14:06.280Z,18.60
2017-08-30T22:16:33.873Z,18.60
2017-08-30T22:19:01.457Z,18.60
2017-08-30T22:21:29.076Z,18.60
2017-08-30T22:23:56.659Z,18.60
2017-08-30T22:26:24.255Z,18.60
2017-08-30T22:28:51.873Z,18.60
2017-08-30T22:31:19.474Z,18.60
2017-08-30T22:33:47.076Z,18.50
2017-08-30T22:36:14.688Z,18.50
2017-08-30T22:38:42.272Z,18.60
2017-08-30T22:41:10.600Z,18.60
2017-08-30T22:43:38.184Z,18.60
2017-08-30T22:46:05.771Z,18.60
2017-08-30T22:48:33.346Z,18.50
2017-08-30T22:51:00.942Z,18.50
2017-08-30T22:53:28.497Z,18.60
2017-08-30T22:55:56.062Z,18.50
2017-08-30T22:58:23.663Z,18.60
2017-08-30T23:00:51.253Z,18.50
2017-08-30T23:03:18.827Z,18.60
2017-08-30T23:05:46.430Z,18.50
2017-08-30T23:08:14.025Z,18.50
2017-08-30T23:10:41.604Z,18.40
2017-08-30T23:13:09.185Z,18.40
2017-08-30T23:15:36.741Z,18.40
2017-08-30T23:18:04.323Z,18.40
2017-08-30T23:20:31.926Z,18.40
2017-08-30T23:22:59.503Z,18.40
2017-08-30T23:25:27.097Z,18.40
2017-08-30T23:27:54.720Z,18.40
2017-08-30T23:30:22.317Z,18.30
2017-08-30T23:32:49.913Z,18.30
2017-08-30T23:35:17.535Z,18.30
2017-08-30T23:37:45.129Z,18.30
2017-08-30T23:40:12.717Z,18.30
2017-08-30T23:42:40.338Z,18.20
2017-08-30T23:45:07.919Z,18.20
2017-08-30T23:47:35.507Z,18.20
2017-08-30T23:50:03.088Z,18.20
2017-08-30T23:52:30.665Z,18.20
2017-08-30T23:54:58.242Z,18.30
2017-08-30T23:57:25.851Z,18.30
2017-08-30T23:59:53.428Z,18.30
